createdAt,value
2019-02-02T00:01:29.722Z,69.63
2019-02-02T00:03:58.846Z,64.57
2019-02-02T00:06:28.150Z,73.47
2019-02-02T00:08:57.330Z,61.87
2019-02-02T00:11:26.473Z,69.87
2019-02-02T00:13:55.642Z,59.03
2019-02-02T00:16:24.814Z,62.07
2019-02-02T00:18:54.054Z,55.63
2019-02-02T00:21:23.322Z,61.80
2019-02-02T00:23:52.470Z,61.50
2019-02-02T00:26:21.801Z,60.80
2019-02-02T00:28:50.954Z,63.23
2019-02-02T00:31:20.261Z,69.13
2019-02-02T00:33:49.401Z,63.17
2019-02-02T00:36:18.806Z,72.97
2019-02-02T00:38:48.045Z,76.53
2019-02-02T00:41:17.262Z,69.00
2019-02-02T00:43:46.527Z,73.17
2019-02-02T00:46:15.666Z,67.37
2019-02-02T00:48:44.834Z,63.80
2019-02-02T00:51:14.102Z,56.93
2019-02-02T00:53:43.245Z,55.80
2019-02-02T00:56:12.385Z,59.57
2019-02-02T00:58:41.514Z,54.83
2019-02-02T01:01:10.949Z,50.80
2019-02-02T01:03:40.171Z,50.90
2019-02-02T01:06:09.426Z,48.67
2019-02-02T01:08:42.424Z,45.83
2019-02-02T01:11:11.570Z,50.00
2019-02-02T01:13:40.701Z,46.03
2019-02-02T01:16:10.050Z,47.10
2019-02-02T01:18:39.186Z,39.80
2019-02-02T01:21:08.350Z,44.50
2019-02-02T01:23:37.489Z,42.40
2019-02-02T01:26:06.802Z,41.03
2019-02-02T01:28:35.974Z,37.37
2019-02-02T01:31:05.110Z,35.70
2019-02-02T01:33:34.237Z,36.93
2019-02-02T01:36:03.414Z,39.83
2019-02-02T01:38:32.542Z,40.13
2019-02-02T01:41:01.663Z,36.40
2019-02-02T01:43:30.848Z,43.97
2019-02-02T01:45:59.965Z,36.00
2019-02-02T01:48:29.118Z,40.60
2019-02-02T01:50:58.278Z,40.03
2019-02-02T01:53:27.406Z,36.70
2019-02-02T01:55:56.533Z,36.30
2019-02-02T01:58:25.693Z,41.43
2019-02-02T02:00:54.818Z,34.20
2019-02-02T02:03:24.101Z,33.97
2019-02-02T02:05:53.271Z,35.87
2019-02-02T02:08:22.413Z,35.80
2019-02-02T02:10:51.563Z,37.20
2019-02-02T02:13:20.730Z,33.80
2019-02-02T02:15:49.869Z,31.43
2019-02-02T02:18:19.002Z,35.00
2019-02-02T02:20:48.166Z,39.33
2019-02-02T02:23:17.297Z,37.00
2019-02-02T02:25:46.434Z,37.77
2019-02-02T02:28:15.593Z,36.77
2019-02-02T02:30:47.302Z,32.90
2019-02-02T02:33:15.912Z,37.13
2019-02-02T02:35:45.226Z,36.47
2019-02-02T02:38:14.357Z,33.40
2019-02-02T02:40:43.486Z,31.43
2019-02-02T02:43:12.667Z,35.43
2019-02-02T02:45:41.816Z,32.77
2019-02-02T02:48:11.002Z,29.60
2019-02-02T02:50:40.250Z,29.93
2019-02-02T02:53:09.414Z,33.03
2019-02-02T02:55:38.635Z,27.17
2019-02-02T02:58:07.798Z,24.93
2019-02-02T03:00:37.008Z,28.17
2019-02-02T03:03:06.525Z,29.03
2019-02-02T03:05:35.695Z,25.97
2019-02-02T03:08:05.028Z,25.50
2019-02-02T03:10:34.222Z,22.97
2019-02-02T03:13:03.346Z,19.43
2019-02-02T03:15:32.481Z,20.50
2019-02-02T03:18:01.725Z,20.07
2019-02-02T03:20:30.854Z,16.47
2019-02-02T03:22:59.975Z,16.73
2019-02-02T03:25:29.108Z,17.17
2019-02-02T03:27:58.260Z,14.33
2019-02-02T03:30:27.736Z,14.60
2019-02-02T03:32:57.071Z,14.33
2019-02-02T03:35:26.279Z,12.50
2019-02-02T03:37:55.448Z,13.63
2019-02-02T03:40:24.881Z,13.30
2019-02-02T03:42:54.226Z,15.37
2019-02-02T03:45:24.634Z,12.73
2019-02-02T03:47:54.390Z,14.23
2019-02-02T03:50:23.526Z,16.07
2019-02-02T03:52:52.702Z,14.20
2019-02-02T03:55:21.827Z,13.53
2019-02-02T03:57:50.964Z,12.40
2019-02-02T04:00:21.246Z,14.37
2019-02-02T04:02:50.698Z,9.53
2019-02-02T04:05:25.363Z,12.67
2019-02-02T04:07:54.610Z,13.33
2019-02-02T04:10:23.829Z,13.67
2019-02-02T04:12:52.963Z,18.30
2019-02-02T04:15:22.276Z,17.37
2019-02-02T04:17:51.526Z,13.60
2019-02-02T04:20:22.382Z,14.00
2019-02-02T04:22:51.951Z,12.03
2019-02-02T04:25:22.130Z,14.20
2019-02-02T04:27:51.657Z,12.90
2019-02-02T04:30:22.778Z,13.00
2019-02-02T04:32:52.198Z,11.43
2019-02-02T04:35:21.846Z,14.37
2019-02-02T04:37:50.969Z,19.03
2019-02-02T04:40:20.185Z,18.73
2019-02-02T04:42:49.338Z,19.07
2019-02-02T04:45:19.013Z,16.97
2019-02-02T04:47:48.125Z,17.83
2019-02-02T04:50:17.721Z,15.83
2019-02-02T04:52:46.875Z,16.23
2019-02-02T04:55:17.542Z,14.47
2019-02-02T04:57:47.160Z,23.67
2019-02-02T05:00:19.344Z,23.47
2019-02-02T05:02:48.582Z,22.57
2019-02-02T05:05:18.073Z,19.77
2019-02-02T05:07:47.213Z,18.53
2019-02-02T05:10:18.181Z,17.67
2019-02-02T05:12:47.478Z,13.47
2019-02-02T05:15:16.699Z,14.87
2019-02-02T05:17:45.826Z,11.97
2019-02-02T05:20:15.581Z,11.80
2019-02-02T05:22:44.734Z,8.80
2019-02-02T05:25:13.854Z,8.90
2019-02-02T05:27:43.027Z,9.90
2019-02-02T05:30:21.523Z,11.40
2019-02-02T05:32:50.802Z,9.00
2019-02-02T05:35:19.925Z,8.83
2019-02-02T05:37:49.054Z,7.77
2019-02-02T05:40:19.259Z,10.47
2019-02-02T05:42:48.634Z,8.60
2019-02-02T05:45:19.786Z,9.77
2019-02-02T05:47:49.169Z,9.07
2019-02-02T05:50:20.140Z,11.60
2019-02-02T05:52:49.284Z,10.73
2019-02-02T05:55:19.166Z,10.47
2019-02-02T05:57:48.444Z,9.53
2019-02-02T06:00:29.818Z,9.40
2019-02-02T06:02:58.969Z,11.03
2019-02-02T06:05:28.122Z,11.97
2019-02-02T06:07:57.462Z,10.27
2019-02-02T06:10:26.584Z,9.63
2019-02-02T06:12:55.750Z,12.30
2019-02-02T06:15:28.523Z,13.07
2019-02-02T06:17:56.422Z,14.73
2019-02-02T06:20:25.601Z,9.73
2019-02-02T06:22:54.722Z,13.10
2019-02-02T06:25:23.856Z,11.03
2019-02-02T06:27:53.010Z,12.67
2019-02-02T06:30:22.387Z,13.87
2019-02-02T06:32:51.629Z,8.50
2019-02-02T06:35:20.913Z,8.50
2019-02-02T06:37:50.981Z,8.60
2019-02-02T06:40:20.193Z,10.50
2019-02-02T06:42:49.406Z,8.37
2019-02-02T06:45:24.572Z,7.33
2019-02-02T06:47:53.769Z,7.37
2019-02-02T06:50:22.912Z,9.47
2019-02-02T06:52:52.050Z,7.60
2019-02-02T06:55:21.586Z,7.30
2019-02-02T06:57:50.726Z,7.00
2019-02-02T07:00:21.565Z,9.30
2019-02-02T07:02:51.093Z,9.03
2019-02-02T07:05:20.473Z,10.37
2019-02-02T07:07:49.601Z,8.53
2019-02-02T07:10:21.082Z,10.23
2019-02-02T07:12:50.334Z,9.60
2019-02-02T07:15:21.197Z,9.47
2019-02-02T07:17:50.452Z,10.80
2019-02-02T07:20:19.606Z,10.23
2019-02-02T07:22:48.830Z,10.47
2019-02-02T07:25:17.966Z,11.43
2019-02-02T07:27:51.513Z,9.33
2019-02-02T07:30:38.319Z,9.83
2019-02-02T07:33:07.524Z,8.80
2019-02-02T07:35:36.791Z,12.23
2019-02-02T07:38:05.967Z,14.63
2019-02-02T07:40:35.095Z,11.93
2019-02-02T07:43:04.430Z,11.70
2019-02-02T07:45:33.585Z,13.60
2019-02-02T07:48:02.734Z,11.50
2019-02-02T07:50:31.975Z,10.67
2019-02-02T07:53:01.139Z,10.93
2019-02-02T07:55:30.340Z,11.07
2019-02-02T07:57:59.617Z,8.93
2019-02-02T08:00:40.811Z,9.47
2019-02-02T08:03:06.502Z,10.97
2019-02-02T08:05:35.659Z,9.10
2019-02-02T08:08:06.693Z,8.10
2019-02-02T08:10:35.874Z,14.23
2019-02-02T08:13:06.217Z,13.63
2019-02-02T08:15:35.366Z,11.63
2019-02-02T08:18:05.049Z,34.17
2019-02-02T08:20:34.297Z,18.37
2019-02-02T08:23:03.656Z,14.87
2019-02-02T08:25:32.794Z,26.30
2019-02-02T08:28:01.926Z,35.93
2019-02-02T08:30:35.531Z,26.33
2019-02-02T08:33:03.657Z,19.00
2019-02-02T08:35:32.934Z,15.73
2019-02-02T08:38:02.135Z,10.60
2019-02-02T08:40:31.266Z,11.47
2019-02-02T08:43:00.407Z,12.20
2019-02-02T08:45:30.034Z,11.10
2019-02-02T08:47:59.249Z,15.43
2019-02-02T08:50:30.606Z,29.63
2019-02-02T08:52:59.743Z,24.07
2019-02-02T08:55:28.920Z,18.13
2019-02-02T08:57:58.332Z,17.67
2019-02-02T09:00:27.741Z,14.57
2019-02-02T09:02:56.991Z,16.40
2019-02-02T09:05:26.185Z,13.50
2019-02-02T09:07:55.421Z,12.67
2019-02-02T09:10:26.135Z,13.83
2019-02-02T09:12:55.449Z,18.33
2019-02-02T09:15:24.898Z,17.30
2019-02-02T09:17:54.031Z,11.60
2019-02-02T09:20:23.286Z,12.67
2019-02-02T09:23:02.927Z,8.90
2019-02-02T09:25:23.834Z,6.63
2019-02-02T09:27:53.041Z,9.43
2019-02-02T09:30:30.606Z,8.87
2019-02-02T09:32:59.789Z,12.47
2019-02-02T09:35:29.134Z,14.13
2019-02-02T09:37:58.260Z,13.70
2019-02-02T09:40:27.535Z,12.20
2019-02-02T09:42:56.682Z,11.03
2019-02-02T09:45:25.938Z,10.07
2019-02-02T09:47:55.157Z,14.87
2019-02-02T09:50:25.216Z,11.97
2019-02-02T09:52:54.426Z,10.47
2019-02-02T09:55:24.269Z,9.53
2019-02-02T09:57:55.735Z,12.93
2019-02-02T10:00:27.308Z,8.03
2019-02-02T10:02:57.495Z,11.20
2019-02-02T10:05:27.150Z,16.00
2019-02-02T10:07:56.337Z,14.97
2019-02-02T10:10:27.361Z,13.17
2019-02-02T10:12:56.783Z,9.80
2019-02-02T10:15:25.926Z,10.07
2019-02-02T10:17:55.183Z,9.87
2019-02-02T10:20:26.304Z,7.83
2019-02-02T10:22:55.962Z,10.87
2019-02-02T10:25:26.722Z,10.43
2019-02-02T10:27:55.851Z,8.10
2019-02-02T10:30:27.454Z,8.47
2019-02-02T10:32:56.601Z,9.83
2019-02-02T10:35:25.831Z,5.50
2019-02-02T10:37:54.992Z,12.17
2019-02-02T10:40:24.206Z,7.47
2019-02-02T10:42:53.317Z,6.87
2019-02-02T10:45:22.639Z,6.97
2019-02-02T10:47:51.949Z,6.63
2019-02-02T10:50:21.522Z,11.50
2019-02-02T10:52:50.766Z,7.10
2019-02-02T10:55:20.019Z,10.73
2019-02-02T10:57:49.232Z,12.17
2019-02-02T11:00:23.686Z,13.17
2019-02-02T11:02:52.806Z,9.60
2019-02-02T11:05:22.128Z,8.17
2019-02-02T11:07:54.198Z,9.23
2019-02-02T11:10:23.984Z,10.53
2019-02-02T11:12:53.269Z,11.00
2019-02-02T11:15:23.185Z,7.37
2019-02-02T11:17:52.461Z,10.97
2019-02-02T11:20:26.689Z,10.50
2019-02-02T11:22:55.971Z,8.63
2019-02-02T11:25:25.334Z,13.03
2019-02-02T11:27:54.850Z,9.93
2019-02-02T11:30:24.715Z,11.03
2019-02-02T11:32:53.878Z,7.93
2019-02-02T11:35:23.022Z,8.57
2019-02-02T11:37:52.280Z,11.40
2019-02-02T11:40:31.874Z,12.40
2019-02-02T11:43:01.289Z,10.80
2019-02-02T11:45:30.431Z,10.77
2019-02-02T11:47:59.598Z,14.00
2019-02-02T11:50:28.842Z,15.13
2019-02-02T11:52:58.068Z,12.57
2019-02-02T11:55:27.225Z,10.40
2019-02-02T11:57:56.406Z,8.87
2019-02-02T12:00:30.686Z,8.63
2019-02-02T12:02:59.893Z,14.40
2019-02-02T12:05:29.333Z,13.47
2019-02-02T12:07:58.467Z,8.77
2019-02-02T12:10:28.305Z,10.13
2019-02-02T12:12:57.602Z,12.70
2019-02-02T12:15:26.729Z,9.87
2019-02-02T12:17:55.962Z,7.73
2019-02-02T12:20:25.241Z,12.80
2019-02-02T12:22:54.393Z,8.70
2019-02-02T12:25:23.506Z,10.87
2019-02-02T12:27:52.629Z,9.40
2019-02-02T12:30:24.439Z,11.20
2019-02-02T12:32:53.556Z,12.27
2019-02-02T12:35:23.834Z,17.40
2019-02-02T12:37:52.971Z,15.53
2019-02-02T12:40:22.901Z,12.40
2019-02-02T12:42:52.187Z,16.83
2019-02-02T12:45:23.849Z,11.87
2019-02-02T12:47:52.975Z,13.87
2019-02-02T12:50:22.241Z,11.87
2019-02-02T12:52:51.423Z,12.00
2019-02-02T12:55:20.545Z,11.93
2019-02-02T12:57:49.746Z,12.20
2019-02-02T13:00:19.250Z,12.50
2019-02-02T13:02:48.639Z,12.50
2019-02-02T13:05:19.177Z,13.63
2019-02-02T13:07:48.307Z,9.20
2019-02-02T13:10:19.647Z,11.47
2019-02-02T13:12:48.799Z,14.17
2019-02-02T13:15:18.045Z,12.80
2019-02-02T13:17:47.174Z,12.47
2019-02-02T13:20:16.322Z,10.20
2019-02-02T13:22:45.564Z,13.80
2019-02-02T13:25:16.525Z,13.63
2019-02-02T13:27:45.689Z,14.80
2019-02-02T13:30:34.782Z,14.13
2019-02-02T13:33:04.862Z,16.17
2019-02-02T13:35:35.919Z,15.33
2019-02-02T13:38:05.653Z,17.37
2019-02-02T13:40:34.791Z,26.23
2019-02-02T13:43:04.002Z,29.37
2019-02-02T13:45:33.201Z,22.60
2019-02-02T13:48:02.418Z,19.20
2019-02-02T13:50:31.662Z,19.70
2019-02-02T13:53:00.949Z,18.80
2019-02-02T13:55:30.073Z,18.30
2019-02-02T13:57:59.249Z,17.93
2019-02-02T14:00:29.887Z,21.17
2019-02-02T14:03:03.683Z,23.17
2019-02-02T14:05:30.353Z,23.17
2019-02-02T14:08:00.221Z,22.73
2019-02-02T14:10:30.870Z,25.57
2019-02-02T14:13:00.046Z,20.77
2019-02-02T14:15:29.196Z,22.10
2019-02-02T14:17:58.453Z,18.00
2019-02-02T14:20:27.647Z,21.67
2019-02-02T14:22:56.787Z,20.40
2019-02-02T14:25:25.985Z,21.33
2019-02-02T14:27:55.257Z,23.00
2019-02-02T14:30:25.757Z,19.10
2019-02-02T14:32:55.398Z,25.97
2019-02-02T14:35:26.459Z,42.83
2019-02-02T14:37:55.653Z,37.67
2019-02-02T14:40:24.816Z,33.10
2019-02-02T14:42:54.248Z,24.37
2019-02-02T14:45:27.421Z,20.70
2019-02-02T14:47:55.806Z,20.20
2019-02-02T14:50:25.758Z,19.80
2019-02-02T14:52:55.209Z,19.33
2019-02-02T14:55:26.546Z,19.40
2019-02-02T14:57:56.118Z,20.20
2019-02-02T15:00:27.256Z,16.00
2019-02-02T15:02:56.497Z,15.17
2019-02-02T15:05:26.001Z,20.70
2019-02-02T15:07:55.243Z,27.17
2019-02-02T15:10:25.152Z,26.40
2019-02-02T15:12:54.682Z,25.17
2019-02-02T15:15:23.953Z,24.63
2019-02-02T15:17:53.106Z,38.23
2019-02-02T15:20:27.678Z,19.57
2019-02-02T15:22:56.862Z,17.60
2019-02-02T15:25:26.014Z,21.13
2019-02-02T15:27:55.184Z,18.27
2019-02-02T15:30:25.510Z,18.80
2019-02-02T15:32:54.833Z,17.57
2019-02-02T15:35:23.993Z,14.63
2019-02-02T15:37:53.148Z,17.67
2019-02-02T15:40:22.290Z,25.13
2019-02-02T15:42:51.489Z,18.47
2019-02-02T15:45:22.508Z,16.93
2019-02-02T15:47:51.792Z,19.20
2019-02-02T15:50:21.046Z,21.13
2019-02-02T15:52:50.190Z,25.13
2019-02-02T15:55:21.017Z,23.53
2019-02-02T15:57:50.214Z,22.93
2019-02-02T16:00:21.678Z,21.03
2019-02-02T16:02:50.869Z,32.33
2019-02-02T16:05:20.222Z,29.73
2019-02-02T16:07:49.437Z,50.60
2019-02-02T16:10:23.863Z,55.53
2019-02-02T16:12:53.678Z,46.53
2019-02-02T16:15:22.814Z,53.03
2019-02-02T16:17:52.000Z,80.50
2019-02-02T16:20:23.595Z,98.17
2019-02-02T16:22:52.849Z,110.77
2019-02-02T16:25:21.998Z,150.60
2019-02-02T16:27:51.146Z,131.47
2019-02-02T16:30:22.321Z,124.33
2019-02-02T16:32:51.462Z,111.63
2019-02-02T16:35:20.614Z,103.30
2019-02-02T16:37:49.810Z,115.97
2019-02-02T16:40:20.762Z,121.07
2019-02-02T16:42:53.331Z,124.60
2019-02-02T16:45:23.506Z,127.27
2019-02-02T16:47:53.674Z,134.07
2019-02-02T16:50:23.183Z,135.00
2019-02-02T16:52:52.548Z,203.30
2019-02-02T16:55:21.690Z,175.60
2019-02-02T16:57:50.872Z,189.33
2019-02-02T17:00:22.562Z,200.57
2019-02-02T17:02:52.017Z,214.77
2019-02-02T17:05:21.548Z,212.87
2019-02-02T17:07:50.875Z,223.13
2019-02-02T17:10:22.230Z,218.43
2019-02-02T17:12:51.371Z,223.53
2019-02-02T17:15:20.645Z,218.37
2019-02-02T17:17:49.791Z,211.07
2019-02-02T17:20:21.594Z,201.67
2019-02-02T17:22:50.797Z,194.47
2019-02-02T17:25:22.511Z,188.23
2019-02-02T17:27:51.214Z,173.50
2019-02-02T17:30:22.115Z,163.30
2019-02-02T17:32:52.470Z,89.43
2019-02-02T17:35:21.770Z,62.90
2019-02-02T17:37:50.945Z,52.50
2019-02-02T17:40:22.153Z,53.50
2019-02-02T17:42:51.526Z,42.03
2019-02-02T17:45:20.745Z,35.23
2019-02-02T17:47:50.022Z,37.73
2019-02-02T17:50:20.886Z,31.93
2019-02-02T17:52:50.229Z,33.30
2019-02-02T17:55:19.577Z,27.93
2019-02-02T17:57:48.778Z,23.50
2019-02-02T18:00:27.266Z,20.60
2019-02-02T18:02:56.394Z,25.03
2019-02-02T18:05:25.610Z,21.77
2019-02-02T18:07:54.771Z,22.60
2019-02-02T18:10:23.942Z,25.43
2019-02-02T18:12:53.114Z,24.07
2019-02-02T18:15:22.342Z,22.10
2019-02-02T18:17:51.474Z,21.87
2019-02-02T18:20:20.652Z,20.53
2019-02-02T18:22:49.967Z,21.80
2019-02-02T18:25:19.273Z,19.43
2019-02-02T18:27:48.708Z,19.93
2019-02-02T18:30:19.298Z,16.77
2019-02-02T18:32:48.551Z,15.80
2019-02-02T18:35:18.372Z,19.60
2019-02-02T18:37:47.610Z,21.23
2019-02-02T18:40:17.850Z,20.77
2019-02-02T18:42:47.090Z,18.23
2019-02-02T18:45:19.133Z,23.03
2019-02-02T18:47:48.310Z,25.20
2019-02-02T18:50:17.481Z,23.37
2019-02-02T18:52:47.482Z,27.33
2019-02-02T18:55:19.626Z,31.30
2019-02-02T18:57:48.814Z,26.83
2019-02-02T19:00:19.407Z,31.63
2019-02-02T19:02:49.022Z,29.17
2019-02-02T19:05:18.187Z,34.17
2019-02-02T19:07:47.358Z,34.67
2019-02-02T19:10:19.479Z,34.43
2019-02-02T19:12:48.689Z,34.53
2019-02-02T19:15:17.881Z,36.20
2019-02-02T19:17:47.107Z,38.43
2019-02-02T19:20:18.058Z,32.47
2019-02-02T19:22:47.234Z,29.80
2019-02-02T19:25:16.386Z,22.53
2019-02-02T19:27:45.564Z,27.63
2019-02-02T19:30:23.206Z,23.17
2019-02-02T19:32:52.388Z,18.03
2019-02-02T19:35:21.722Z,17.67
2019-02-02T19:37:50.930Z,21.60
2019-02-02T19:40:20.060Z,19.40
2019-02-02T19:42:49.209Z,21.77
2019-02-02T19:45:20.140Z,16.80
2019-02-02T19:47:49.598Z,17.43
2019-02-02T19:50:21.315Z,17.33
2019-02-02T19:52:50.482Z,22.40
2019-02-02T19:55:19.750Z,19.80
2019-02-02T19:57:49.159Z,19.63
2019-02-02T20:00:20.526Z,22.07
2019-02-02T20:02:49.966Z,21.87
2019-02-02T20:05:28.174Z,20.70
2019-02-02T20:07:50.265Z,22.40
2019-02-02T20:10:19.674Z,23.50
2019-02-02T20:12:48.854Z,20.23
2019-02-02T20:15:20.207Z,21.40
2019-02-02T20:17:49.629Z,22.23
2019-02-02T20:20:20.453Z,22.37
2019-02-02T20:22:50.136Z,21.67
2019-02-02T20:25:19.290Z,19.90
2019-02-02T20:27:48.489Z,27.90
2019-02-02T20:30:22.506Z,24.23
2019-02-02T20:32:51.705Z,19.60
2019-02-02T20:35:20.846Z,18.97
2019-02-02T20:37:50.142Z,20.97
2019-02-02T20:40:20.991Z,21.33
2019-02-02T20:42:50.161Z,18.93
2019-02-02T20:45:21.426Z,18.47
2019-02-02T20:47:50.703Z,16.80
2019-02-02T20:50:19.973Z,22.13
2019-02-02T20:52:49.210Z,20.97
2019-02-02T20:55:21.101Z,25.20
2019-02-02T20:57:50.886Z,23.80
2019-02-02T21:00:22.252Z,27.47
2019-02-02T21:02:51.800Z,22.70
2019-02-02T21:05:21.162Z,28.50
2019-02-02T21:07:50.418Z,37.60
2019-02-02T21:10:21.190Z,35.03
2019-02-02T21:12:50.536Z,34.93
2019-02-02T21:15:19.774Z,36.93
2019-02-02T21:17:49.289Z,35.23
2019-02-02T21:20:20.916Z,43.27
2019-02-02T21:22:50.378Z,53.40
2019-02-02T21:25:19.657Z,53.17
2019-02-02T21:27:48.886Z,61.37
2019-02-02T21:30:29.124Z,59.30
2019-02-02T21:32:58.408Z,65.20
2019-02-02T21:35:27.659Z,62.33
2019-02-02T21:37:56.876Z,59.37
2019-02-02T21:40:28.065Z,56.47
2019-02-02T21:42:57.266Z,73.17
2019-02-02T21:45:26.494Z,68.60
2019-02-02T21:47:56.053Z,68.03
2019-02-02T21:50:25.337Z,72.30
2019-02-02T21:52:54.767Z,67.60
2019-02-02T21:55:25.538Z,57.50
2019-02-02T21:57:54.755Z,52.37
2019-02-02T22:00:29.702Z,45.83
2019-02-02T22:02:58.901Z,43.70
2019-02-02T22:05:28.041Z,43.13
2019-02-02T22:07:57.257Z,40.73
2019-02-02T22:10:26.498Z,48.70
2019-02-02T22:12:56.116Z,39.33
2019-02-02T22:15:25.709Z,41.73
2019-02-02T22:17:55.046Z,44.77
2019-02-02T22:20:24.258Z,51.20
2019-02-02T22:22:53.552Z,44.20
2019-02-02T22:25:24.863Z,51.97
2019-02-02T22:27:54.281Z,54.80
2019-02-02T22:30:25.536Z,52.10
2019-02-02T22:32:54.750Z,75.87
2019-02-02T22:35:23.958Z,68.57
2019-02-02T22:37:53.182Z,57.57
2019-02-02T22:40:23.806Z,68.97
2019-02-02T22:42:53.107Z,56.40
2019-02-02T22:45:23.034Z,82.07
2019-02-02T22:47:52.485Z,64.23
2019-02-02T22:50:23.127Z,154.60
2019-02-02T22:52:52.590Z,123.67
2019-02-02T22:55:22.062Z,126.40
2019-02-02T22:57:51.491Z,137.90
2019-02-02T23:00:43.190Z,166.60
2019-02-02T23:03:15.400Z,182.47
2019-02-02T23:06:20.779Z,132.13
2019-02-02T23:09:29.682Z,112.83
2019-02-02T23:12:12.117Z,104.03
2019-02-02T23:14:56.685Z,102.97
2019-02-02T23:17:26.018Z,93.83
2019-02-02T23:19:55.245Z,106.60
2019-02-02T23:22:24.430Z,143.40
2019-02-02T23:24:53.655Z,131.40
2019-02-02T23:27:22.938Z,123.50
2019-02-02T23:29:52.189Z,143.30
2019-02-02T23:32:21.339Z,146.67
2019-02-02T23:34:50.882Z,147.40
2019-02-02T23:37:20.234Z,141.53
2019-02-02T23:39:49.478Z,147.77
2019-02-02T23:42:18.729Z,154.77
2019-02-02T23:44:47.959Z,171.63
2019-02-02T23:47:17.197Z,186.03
2019-02-02T23:49:46.483Z,149.57
2019-02-02T23:52:15.748Z,166.83
2019-02-02T23:54:44.959Z,167.83
2019-02-02T23:57:14.163Z,183.83
2019-02-02T23:59:43.385Z,157.47
